Latest Weather Observations for Argyle

IDW60801

Issued at 8:03 pm WST Wednesday 28 January 2015 (issued every 30 minutes, with the page automatically refreshed every 10 minutes)

About weather observations | Map of weather stations | Latest weather observations for WA | Other Formats
Station Details ID: 002064 Name: ARGYLE AERODROME Lat: -16.64 Lon: 128.45 Height: 164.0 m
Data from the previous 72 hours. | See also: Recent months at Argyle
Date/Time
WST
Temp
°C
App
Temp
°C
Dew
Point
Rel
Hum
%
Delta-T
°C
Wind Press
QNH
hPa
Press
MSL
hPa
Rain
since 9 am
mm
Dir
 
Spd
km/h
Gust
km/h
Spd
kts
Gust
kts
28/08:00pm 27.8 31.9 23.3 76 3.1 SW 7 9 4 5 1007.0 - 0.8
28/07:30pm 27.5 31.2 23.3 78 2.9 SSW 9 11 5 6 1006.9 - 0.8
28/06:56pm 27.4 32.2 24.4 84 2.1 SSW 7 9 4 5 1006.7 - 0.8
28/06:30pm 29.7 32.0 22.1 63 5.2 SSE 13 19 7 10 1006.3 - 0.0
28/05:30pm 31.0 32.7 20.9 55 6.8 NNE 13 17 7 9 1005.2 - 0.0
28/05:00pm 31.6 32.1 19.3 48 8.1 NNE 15 20 8 11 1004.7 - 0.0
28/04:30pm 32.5 34.5 20.8 50 7.9 ENE 11 15 6 8 1004.3 - 0.0
28/04:00pm 33.2 35.3 20.2 46 8.7 ESE 9 15 5 8 1004.0 - 0.0
28/03:30pm 33.6 34.6 18.7 41 9.8 ESE 11 17 6 9 1003.9 - 0.0
28/03:00pm 34.0 35.1 18.9 41 10.0 ESE 11 17 6 9 1003.9 1002.6 0.0
28/02:30pm 33.8 34.9 18.8 41 9.9 E 11 19 6 10 1003.9 - 0.0
28/02:00pm 33.6 35.2 20.0 44 9.1 SE 11 19 6 10 1004.6 - 0.0
28/01:30pm 33.3 34.0 21.2 49 8.2 ESE 19 28 10 15 1004.9 - 0.0
28/01:00pm 33.7 35.8 20.9 47 8.7 ENE 11 22 6 12 1005.2 - 0.0
28/12:30pm 32.9 35.3 21.6 51 7.7 E 11 17 6 9 1005.6 - 0.0
28/12:00pm 32.8 34.8 21.5 51 7.7 E 13 20 7 11 1006.2 1004.9 0.0
28/11:30am 32.5 35.3 21.5 52 7.5 ESE 9 17 5 9 1006.6 - 0.0
28/11:00am 32.0 34.7 20.7 51 7.6 SSE 7 11 4 6 1007.0 - 0.0
28/10:30am 31.6 34.3 20.7 52 7.3 SW 7 13 4 7 1007.5 - 0.0
28/10:00am 31.8 35.0 21.3 53 7.1 SW 6 9 3 5 1008.0 - 0.0
28/09:30am 31.2 34.4 21.6 56 6.5 NE 7 13 4 7 1008.2 - 0.0
28/09:00am 30.5 33.5 21.3 58 6.2 E 7 9 4 5 1008.3 1007.0 0.2
28/08:30am 29.1 32.6 22.2 66 4.7 SSW 7 13 4 7 1008.5 - 0.2
28/08:00am 27.9 31.8 22.9 74 3.4 SSE 7 13 4 7 1008.5 - 0.2
28/07:30am 28.0 32.0 23.1 74 3.4 SW 7 13 4 7 1008.3 - 0.2
28/07:00am 27.3 31.2 22.6 75 3.2 SSW 6 11 3 6 1008.0 - 0.2
28/06:00am 25.8 30.6 23.5 87 1.6 SSW 4 7 2 4 1007.6 1006.3 0.2
28/05:30am 24.9 30.4 23.4 91 1.0 CALM 0 0 0 0 1007.2 - 0.2
28/05:00am 24.7 29.9 23.5 93 0.8 S 2 6 1 3 1007.0 - 0.2
28/04:30am 24.8 29.2 23.5 92 0.9 W 6 6 3 3 1006.6 - 0.2
28/04:00am 24.8 29.1 23.3 91 1.0 WSW 6 7 3 4 1006.7 - 0.2
28/03:30am 24.7 28.9 23.5 93 0.8 W 7 9 4 5 1006.7 - 0.2
28/03:00am 24.8 29.7 23.6 93 0.8 E 4 7 2 4 1006.9 1005.6 0.2
28/02:37am 24.9 29.6 23.3 91 1.1 NE 4 6 2 3 1006.9 - 0.2
28/02:30am 24.9 29.5 23.1 90 1.2 NNE 4 6 2 3 1006.9 - 0.2
28/02:09am 25.1 30.4 23.0 88 1.4 CALM 0 2 0 1 1007.0 - 0.2
28/02:00am 25.1 29.2 23.0 88 1.4 ESE 6 7 3 4 1007.1 - 0.2
28/01:30am 25.0 29.9 23.1 89 1.3 SSE 2 6 1 3 1007.1 - 0.2
28/01:00am 24.8 28.7 23.0 90 1.2 ESE 7 9 4 5 1007.3 - 0.2
28/12:30am 25.0 29.1 23.2 90 1.2 W 7 9 4 5 1007.6 - 0.2
 
Date/Time
WST
Temp
°C
App
Temp
°C
Dew
Point
Rel
Hum
%
Delta-T
°C
Wind Press
QNH
hPa
Press
MSL
hPa
Rain
since 9 am
mm
Dir
 
Spd
km/h
Gust
km/h
Spd
kts
Gust
kts
27/11:30pm 25.1 29.3 23.2 89 1.3 W 6 9 3 5 1008.0 - 0.2
27/11:00pm 25.4 29.2 22.4 83 2.0 NNW 6 9 3 5 1008.1 - 0.2
27/10:30pm 25.3 29.2 22.6 85 1.8 ENE 6 9 3 5 1008.8 - 0.2
27/10:00pm 25.4 29.2 23.4 89 1.4 N 9 13 5 7 1009.2 - 0.2
27/09:30pm 25.6 29.5 23.6 89 1.4 N 9 11 5 6 1009.4 - 0.2
27/09:00pm 25.8 29.9 23.3 86 1.7 NNW 7 9 4 5 1009.4 1008.1 0.2
27/08:30pm 25.8 29.7 22.9 84 2.0 NNW 7 9 4 5 1009.1 - 0.2
27/08:00pm 25.9 29.4 22.8 83 2.1 NNW 9 11 5 6 1009.1 - 0.2
27/07:30pm 25.9 29.2 22.5 81 2.3 NNW 9 11 5 6 1008.6 - 0.2
27/07:00pm 26.1 29.3 22.3 79 2.6 NW 9 11 5 6 1008.3 - 0.2
27/06:30pm 26.3 30.1 22.8 81 2.4 NNW 7 11 4 6 1007.7 - 0.2
27/06:00pm 26.4 30.1 22.6 79 2.6 NNE 7 9 4 5 1007.5 1006.2 0.2
27/05:30pm 27.0 30.2 21.6 72 3.6 NNE 7 9 4 5 1007.1 - 0.2
27/05:00pm 27.5 32.2 22.0 72 3.7 CALM 0 4 0 2 1006.7 - 0.2
27/04:30pm 27.0 30.4 21.6 72 3.6 N 6 7 3 4 1006.3 - 0.2
27/04:00pm 26.5 29.1 21.9 76 3.1 N 11 15 6 8 1006.0 - 0.2
27/03:30pm 26.1 28.5 22.3 79 2.6 NNW 13 17 7 9 1005.8 - 0.2
27/03:00pm 26.1 28.7 22.7 81 2.3 N 13 17 7 9 1006.0 1004.6 0.2
27/02:30pm 25.9 28.5 23.3 85 1.8 N 15 19 8 10 1006.3 - 0.2
27/02:00pm 26.7 31.3 23.2 81 2.4 N 4 7 2 4 1006.6 - 0.2
27/01:30pm 26.9 29.4 22.5 77 3.0 WNW 13 17 7 9 1007.2 - 0.0
27/01:00pm 26.6 28.0 22.8 79 2.6 NW 20 26 11 14 1008.4 - 0.0
27/12:30pm 27.3 29.7 20.8 67 4.3 NW 9 15 5 8 1009.1 - 0.0
27/12:00pm 26.8 29.5 22.2 76 3.1 S 11 20 6 11 1008.8 1007.5 0.0
27/11:30am 26.4 27.3 21.5 74 3.3 S 19 30 10 16 1008.8 - 0.0
27/11:00am 26.4 25.6 22.3 78 2.8 SSE 30 46 16 25 1008.9 - 0.0
27/10:55am 26.6 26.2 22.3 77 2.9 SSE 28 46 15 25 1008.9 - 0.0
27/10:30am 28.4 30.0 23.3 74 3.5 S 20 35 11 19 1009.0 - 0.0
27/10:00am 29.5 31.1 23.9 72 3.9 SSW 22 33 12 18 1008.8 - 0.0
27/09:30am 29.0 30.5 24.3 76 3.3 SSW 24 33 13 18 1009.1 - 0.0
27/09:23am 28.6 30.6 24.0 76 3.2 SSW 20 30 11 16 1009.3 - 0.0
27/09:12am 28.6 32.1 24.8 80 2.7 SW 15 22 8 12 1009.4 - 0.0
27/09:04am 28.3 31.7 24.7 81 2.5 WSW 15 20 8 11 1009.4 - 0.0
27/09:00am 28.0 31.9 24.9 83 2.2 WSW 13 20 7 11 1009.4 1008.1 1.6
27/08:50am 28.5 31.2 24.2 77 3.0 SW 17 24 9 13 1009.4 - 0.8
27/08:30am 29.4 30.7 21.6 63 5.3 SW 17 28 9 15 1009.4 - 0.0
27/08:00am 29.8 33.1 22.5 65 5.0 NW 9 11 5 6 1009.5 - 0.0
27/07:30am 29.1 32.2 22.2 66 4.7 N 9 15 5 8 1009.4 - 0.0
27/07:00am 28.4 31.2 21.6 66 4.6 N 9 13 5 7 1009.4 - 0.0
27/06:30am 27.8 30.2 21.6 69 4.2 N 11 15 6 8 1009.3 - 0.0
27/06:00am 27.4 30.1 22.1 73 3.6 N 11 17 6 9 1008.9 1007.6 0.0
27/05:30am 27.4 30.3 21.8 71 3.8 NNW 9 11 5 6 1008.1 - 0.0
27/05:00am 27.3 32.1 22.1 73 3.5 CALM 0 0 0 0 1008.1 - 0.0
27/04:30am 27.1 31.5 22.1 74 3.4 NE 2 6 1 3 1007.6 - 0.0
27/04:00am 27.0 31.7 22.0 74 3.4 CALM 0 6 0 3 1007.2 - 0.0
27/03:30am 27.0 30.5 21.8 73 3.5 NW 6 9 3 5 1007.3 - 0.0
27/03:00am 26.9 31.6 21.9 74 3.4 CALM 0 0 0 0 1007.3 1006.0 0.0
27/02:30am 27.1 30.9 21.6 72 3.7 N 4 7 2 4 1007.2 - 0.0
27/02:00am 27.0 29.7 21.3 71 3.8 N 9 11 5 6 1006.7 - 0.0
27/01:30am 27.1 31.0 21.8 73 3.6 E 4 6 2 3 1006.8 - 0.0
27/01:00am 27.7 31.7 21.3 68 4.3 WSW 2 6 1 3 1006.7 - 0.0
27/12:30am 27.7 30.4 20.6 65 4.7 NNE 7 9 4 5 1006.7 - 0.0
27/12:03am 28.1 30.9 20.4 63 5.1 NNW 6 7 3 4 1007.1 - 0.0
27/12:00am 28.1 30.9 20.4 63 5.1 NNW 6 9 3 5 1007.2 1005.9 0.0
 
Date/Time
WST
Temp
°C
App
Temp
°C
Dew
Point
Rel
Hum
%
Delta-T
°C
Wind Press
QNH
hPa
Press
MSL
hPa
Rain
since 9 am
mm
Dir
 
Spd
km/h
Gust
km/h
Spd
kts
Gust
kts
26/11:30pm 28.3 30.4 20.1 61 5.4 NNW 9 13 5 7 1007.4 - 0.0
26/11:00pm 28.7 29.0 19.7 58 5.9 NNW 17 20 9 11 1007.7 - 0.0
26/10:30pm 28.7 29.7 20.2 60 5.6 NNW 15 17 8 9 1008.6 - 0.0
26/10:00pm 28.8 30.0 20.0 59 5.8 NNW 13 17 7 9 1009.0 - 0.0
26/09:30pm 29.2 30.2 20.3 58 5.9 NNW 15 19 8 10 1009.1 - 0.0
26/09:00pm 29.6 30.3 20.4 57 6.1 NNW 17 22 9 12 1009.0 1007.7 0.0
26/08:30pm 30.1 31.7 21.5 60 5.8 NW 15 19 8 10 1008.7 - 0.0
26/08:00pm 30.9 33.2 22.0 59 6.1 NNW 13 22 7 12 1008.4 - 0.0
26/07:59pm 31.0 33.4 22.2 59 6.0 NNW 13 22 7 12 1008.4 - 0.0
26/07:30pm 31.9 35.5 22.3 56 6.6 N 7 11 4 6 1007.5 - 0.0
26/07:00pm 31.9 35.3 22.0 55 6.8 NNE 7 7 4 4 1007.0 - 0.0
26/06:30pm 31.5 34.6 22.2 57 6.4 NNE 9 11 5 6 1007.2 - 0.0
26/06:00pm 32.1 35.6 22.2 56 6.8 E 7 9 4 5 1006.9 1005.6 0.0
26/05:30pm 32.6 35.0 21.6 52 7.5 SE 11 15 6 8 1006.3 - 0.0
26/05:00pm 33.7 35.5 20.3 45 9.0 NNE 11 17 6 9 1005.7 - 0.0
26/04:30pm 34.8 37.4 19.3 40 10.3 ENE 4 7 2 4 1006.1 - 0.0
26/04:00pm 35.1 36.3 18.2 36 11.1 SE 9 13 5 7 1005.4 - 0.0
26/03:30pm 34.9 36.0 18.9 39 10.6 SE 11 19 6 10 1005.4 - 0.0
26/03:00pm 34.7 35.9 19.0 39 10.4 SE 11 17 6 9 1005.5 1004.2 0.0
26/02:30pm 34.4 35.2 19.0 40 10.2 SE 13 20 7 11 1006.2 - 0.0
26/02:00pm 35.1 36.4 19.3 39 10.5 SE 11 17 6 9 1006.6 - 0.0
26/01:30pm 34.5 36.0 19.7 41 9.9 ESE 11 20 6 11 1007.4 - 0.0
26/01:00pm 34.2 36.3 20.2 43 9.4 SE 9 13 5 7 1008.0 - 0.0
26/12:30pm 33.4 34.8 19.6 44 9.2 E 11 15 6 8 1008.3 - 0.0
26/12:00pm 33.1 32.7 19.0 43 9.3 E 19 24 10 13 1008.8 1007.5 0.0
26/11:30am 32.9 35.6 20.2 47 8.5 NE 6 13 3 7 1009.1 - 0.0
26/11:00am 32.8 35.6 20.8 49 8.1 ESE 7 13 4 7 1009.6 - 0.0
26/10:30am 32.3 33.8 20.5 49 7.9 ENE 13 19 7 10 1009.9 - 0.0
26/10:00am 32.1 33.1 20.3 49 7.9 ENE 15 20 8 11 1010.3 - 0.0
26/09:30am 30.5 32.8 20.6 55 6.6 NE 9 17 5 9 1010.9 - 0.0
26/09:00am 29.8 32.2 20.8 58 6.0 E 9 15 5 8 1010.8 1009.5 0.0
26/08:30am 28.9 31.8 21.8 65 4.8 ENE 9 13 5 7 1010.8 - 0.0
26/08:00am 28.4 31.5 22.2 69 4.2 E 9 13 5 7 1010.4 - 0.0
26/07:30am 27.1 31.2 23.0 78 2.8 E 6 11 3 6 1010.7 - 0.0
26/07:00am 26.5 30.4 23.0 81 2.4 NE 7 11 4 6 1010.9 - 0.0
26/06:30am 26.3 29.8 22.8 81 2.4 ENE 9 11 5 6 1010.8 - 0.0
26/06:00am 26.3 29.8 22.8 81 2.4 E 9 13 5 7 1010.3 1009.0 0.0
26/05:30am 26.3 30.3 23.1 82 2.2 ESE 7 9 4 5 1009.6 - 0.0
26/05:00am 26.5 31.2 21.9 76 3.1 CALM 0 0 0 0 1009.0 - 0.0
26/04:30am 26.5 31.4 23.1 81 2.3 WSW 2 7 1 4 1009.0 - 0.0
26/04:00am 26.4 30.5 22.9 81 2.4 W 6 7 3 4 1009.0 - 0.0
26/03:30am 26.3 31.5 22.8 81 2.4 CALM 0 0 0 0 1008.9 - 0.0
26/03:00am 26.2 30.1 23.0 82 2.2 NW 7 9 4 5 1009.2 1007.9 0.0
26/02:30am 26.5 31.0 22.2 77 2.9 ENE 2 6 1 3 1009.6 - 0.0
26/02:00am 26.7 30.3 22.1 76 3.1 E 6 7 3 4 1009.7 - 0.0
26/01:30am 26.7 30.7 22.1 76 3.1 SE 4 7 2 4 1009.9 - 0.0
26/01:00am 26.7 29.5 21.5 73 3.5 SE 9 13 5 7 1010.6 - 0.0
26/12:30am 27.0 30.2 21.3 71 3.8 S 6 9 3 5 1010.9 - 0.0
26/12:00am 27.2 30.0 20.9 68 4.2 S 7 11 4 6 1010.6 1009.3 0.0
 
Date/Time
WST
Temp
°C
App
Temp
°C
Dew
Point
Rel
Hum
%
Delta-T
°C
Wind Press
QNH
hPa
Press
MSL
hPa
Rain
since 9 am
mm
Dir
 
Spd
km/h
Gust
km/h
Spd
kts
Gust
kts
25/11:30pm 27.9 28.2 20.5 64 4.9 SW 19 24 10 13 1011.1 - 0.0
25/11:00pm 28.0 29.0 21.0 65 4.7 SW 17 24 9 13 1010.9 - 0.0
25/10:30pm 27.8 29.8 21.6 69 4.2 S 13 20 7 11 1011.0 - 0.0
25/10:00pm 27.3 30.1 22.3 74 3.4 SSW 11 17 6 9 1010.5 - 0.0
25/09:30pm 27.0 30.6 22.4 76 3.1 W 7 11 4 6 1009.8 - 0.0
25/09:00pm 27.1 30.9 22.7 77 3.0 E 7 9 4 5 1010.5 1009.2 0.0
25/08:30pm 27.5 31.2 22.3 73 3.5 E 6 7 3 4 1010.1 - 0.0

Other Formats:

Comma delimited format used in spreadsheet applications
http://www.bom.gov.au/fwo/IDW60801/IDW60801.94217.axf

JavaScript Object Notation format (JSON) in row-major order
http://www.bom.gov.au/fwo/IDW60801/IDW60801.94217.json